sensor_id;sensor_type;location;lat;lon;timestamp;P1;durP1;ratioP1;P2;durP2;ratioP2
31037;SDS011;17702;47.590;7.666;2023-09-12T00:00:44;9.73;;;7.80;;
31037;SDS011;17702;47.590;7.666;2023-09-12T00:03:10;7.75;;;6.97;;
31037;SDS011;17702;47.590;7.666;2023-09-12T00:05:36;10.20;;;8.02;;
31037;SDS011;17702;47.590;7.666;2023-09-12T00:08:02;8.23;;;7.35;;
31037;SDS011;17702;47.590;7.666;2023-09-12T00:10:28;8.73;;;7.93;;
31037;SDS011;17702;47.590;7.666;2023-09-12T00:12:54;13.07;;;7.40;;
31037;SDS011;17702;47.590;7.666;2023-09-12T00:15:20;10.35;;;7.72;;
31037;SDS011;17702;47.590;7.666;2023-09-12T00:17:46;10.95;;;7.75;;
31037;SDS011;17702;47.590;7.666;2023-09-12T00:20:13;8.60;;;7.57;;
31037;SDS011;17702;47.590;7.666;2023-09-12T00:22:39;9.52;;;7.38;;
31037;SDS011;17702;47.590;7.666;2023-09-12T00:25:05;13.00;;;8.02;;
31037;SDS011;17702;47.590;7.666;2023-09-12T00:27:31;8.13;;;7.40;;
31037;SDS011;17702;47.590;7.666;2023-09-12T00:29:56;10.60;;;7.93;;
31037;SDS011;17702;47.590;7.666;2023-09-12T00:32:22;8.73;;;7.93;;
31037;SDS011;17702;47.590;7.666;2023-09-12T00:34:47;10.63;;;8.20;;
31037;SDS011;17702;47.590;7.666;2023-09-12T00:37:13;10.65;;;8.07;;
31037;SDS011;17702;47.590;7.666;2023-09-12T00:39:39;11.13;;;8.65;;
31037;SDS011;17702;47.590;7.666;2023-09-12T00:42:04;8.55;;;7.28;;
31037;SDS011;17702;47.590;7.666;2023-09-12T00:44:32;9.00;;;8.10;;
31037;SDS011;17702;47.590;7.666;2023-09-12T00:46:58;9.18;;;8.32;;
31037;SDS011;17702;47.590;7.666;2023-09-12T00:49:25;9.02;;;8.23;;
31037;SDS011;17702;47.590;7.666;2023-09-12T00:51:53;9.50;;;7.75;;
31037;SDS011;17702;47.590;7.666;2023-09-12T00:54:21;8.32;;;7.47;;
31037;SDS011;17702;47.590;7.666;2023-09-12T00:56:47;9.80;;;7.65;;
31037;SDS011;17702;47.590;7.666;2023-09-12T00:59:13;9.82;;;7.97;;
31037;SDS011;17702;47.590;7.666;2023-09-12T01:01:42;9.32;;;7.70;;
31037;SDS011;17702;47.590;7.666;2023-09-12T01:04:09;9.80;;;8.18;;
31037;SDS011;17702;47.590;7.666;2023-09-12T01:06:35;10.73;;;8.82;;
31037;SDS011;17702;47.590;7.666;2023-09-12T01:09:01;9.60;;;8.05;;
31037;SDS011;17702;47.590;7.666;2023-09-12T01:11:27;9.25;;;8.45;;
31037;SDS011;17702;47.590;7.666;2023-09-12T01:13:53;10.38;;;8.20;;
31037;SDS011;17702;47.590;7.666;2023-09-12T01:16:19;10.13;;;8.18;;
31037;SDS011;17702;47.590;7.666;2023-09-12T01:18:44;9.05;;;7.88;;
31037;SDS011;17702;47.590;7.666;2023-09-12T01:21:36;9.35;;;7.55;;
31037;SDS011;17702;47.590;7.666;2023-09-12T01:29:59;9.77;;;8.75;;
31037;SDS011;17702;47.590;7.666;2023-09-12T01:32:29;9.48;;;8.10;;
31037;SDS011;17702;47.590;7.666;2023-09-12T01:34:57;12.10;;;8.95;;
31037;SDS011;17702;47.590;7.666;2023-09-12T01:37:23;11.57;;;8.80;;
31037;SDS011;17702;47.590;7.666;2023-09-12T01:39:48;9.73;;;8.45;;
31037;SDS011;17702;47.590;7.666;2023-09-12T01:42:15;9.32;;;8.35;;
31037;SDS011;17702;47.590;7.666;2023-09-12T01:44:43;10.32;;;8.63;;
31037;SDS011;17702;47.590;7.666;2023-09-12T01:47:10;9.25;;;8.45;;
31037;SDS011;17702;47.590;7.666;2023-09-12T01:49:37;9.98;;;8.68;;
31037;SDS011;17702;47.590;7.666;2023-09-12T01:52:06;9.15;;;8.25;;
31037;SDS011;17702;47.590;7.666;2023-09-12T01:54:32;9.98;;;8.90;;
31037;SDS011;17702;47.590;7.666;2023-09-12T01:56:59;11.65;;;8.98;;
31037;SDS011;17702;47.590;7.666;2023-09-12T01:59:26;10.00;;;9.10;;
31037;SDS011;17702;47.590;7.666;2023-09-12T02:01:53;9.30;;;8.32;;
31037;SDS011;17702;47.590;7.666;2023-09-12T02:04:18;10.38;;;9.05;;
31037;SDS011;17702;47.590;7.666;2023-09-12T02:06:44;12.02;;;8.45;;
31037;SDS011;17702;47.590;7.666;2023-09-12T02:09:09;10.27;;;8.48;;
31037;SDS011;17702;47.590;7.666;2023-09-12T02:11:35;11.82;;;9.48;;
31037;SDS011;17702;47.590;7.666;2023-09-12T02:14:00;10.13;;;9.07;;
31037;SDS011;17702;47.590;7.666;2023-09-12T02:16:26;12.38;;;9.48;;
31037;SDS011;17702;47.590;7.666;2023-09-12T02:18:52;10.45;;;8.95;;
31037;SDS011;17702;47.590;7.666;2023-09-12T02:21:17;13.02;;;8.98;;
31037;SDS011;17702;47.590;7.666;2023-09-12T02:23:43;9.27;;;8.45;;
31037;SDS011;17702;47.590;7.666;2023-09-12T02:26:09;11.07;;;8.60;;
31037;SDS011;17702;47.590;7.666;2023-09-12T02:28:34;11.90;;;8.85;;
31037;SDS011;17702;47.590;7.666;2023-09-12T02:31:00;9.63;;;8.63;;
31037;SDS011;17702;47.590;7.666;2023-09-12T02:33:25;10.05;;;8.27;;
31037;SDS011;17702;47.590;7.666;2023-09-12T02:35:51;9.85;;;8.88;;
31037;SDS011;17702;47.590;7.666;2023-09-12T02:38:17;9.18;;;8.30;;
31037;SDS011;17702;47.590;7.666;2023-09-12T02:40:43;11.10;;;8.98;;
31037;SDS011;17702;47.590;7.666;2023-09-12T02:43:08;12.15;;;9.35;;
31037;SDS011;17702;47.590;7.666;2023-09-12T02:45:34;9.93;;;8.98;;
31037;SDS011;17702;47.590;7.666;2023-09-12T02:47:59;9.13;;;8.30;;
31037;SDS011;17702;47.590;7.666;2023-09-12T02:50:25;9.60;;;8.70;;
31037;SDS011;17702;47.590;7.666;2023-09-12T02:52:51;10.07;;;9.05;;
31037;SDS011;17702;47.590;7.666;2023-09-12T02:55:16;10.23;;;9.30;;
31037;SDS011;17702;47.590;7.666;2023-09-12T02:57:42;9.85;;;9.00;;
31037;SDS011;17702;47.590;7.666;2023-09-12T03:00:08;9.95;;;9.02;;
31037;SDS011;17702;47.590;7.666;2023-09-12T03:02:34;9.25;;;8.38;;
31037;SDS011;17702;47.590;7.666;2023-09-12T03:05:00;10.25;;;9.25;;
31037;SDS011;17702;47.590;7.666;2023-09-12T03:07:26;11.18;;;8.68;;
31037;SDS011;17702;47.590;7.666;2023-09-12T03:09:52;11.52;;;9.27;;
31037;SDS011;17702;47.590;7.666;2023-09-12T03:12:17;11.57;;;9.43;;
31037;SDS011;17702;47.590;7.666;2023-09-12T03:14:43;10.10;;;9.10;;
31037;SDS011;17702;47.590;7.666;2023-09-12T03:17:08;10.65;;;9.55;;
31037;SDS011;17702;47.590;7.666;2023-09-12T03:19:34;10.73;;;9.63;;
31037;SDS011;17702;47.590;7.666;2023-09-12T03:22:00;12.70;;;9.85;;
31037;SDS011;17702;47.590;7.666;2023-09-12T03:24:25;12.00;;;9.80;;
31037;SDS011;17702;47.590;7.666;2023-09-12T03:26:53;13.05;;;10.32;;
31037;SDS011;17702;47.590;7.666;2023-09-12T03:29:19;9.43;;;8.52;;
31037;SDS011;17702;47.590;7.666;2023-09-12T03:31:45;11.15;;;9.25;;
31037;SDS011;17702;47.590;7.666;2023-09-12T03:34:10;10.50;;;9.27;;
31037;SDS011;17702;47.590;7.666;2023-09-12T03:36:36;10.00;;;8.98;;
31037;SDS011;17702;47.590;7.666;2023-09-12T03:39:01;10.65;;;9.65;;
31037;SDS011;17702;47.590;7.666;2023-09-12T03:41:30;10.60;;;9.50;;
31037;SDS011;17702;47.590;7.666;2023-09-12T03:43:55;10.88;;;8.80;;
31037;SDS011;17702;47.590;7.666;2023-09-12T03:46:21;11.18;;;9.70;;
31037;SDS011;17702;47.590;7.666;2023-09-12T03:48:47;10.43;;;9.43;;
31037;SDS011;17702;47.590;7.666;2023-09-12T03:51:13;10.88;;;9.43;;
31037;SDS011;17702;47.590;7.666;2023-09-12T03:53:39;10.30;;;9.25;;
31037;SDS011;17702;47.590;7.666;2023-09-12T03:56:05;9.95;;;8.95;;
31037;SDS011;17702;47.590;7.666;2023-09-12T03:58:31;11.43;;;9.77;;
31037;SDS011;17702;47.590;7.666;2023-09-12T04:00:57;12.57;;;9.52;;
31037;SDS011;17702;47.590;7.666;2023-09-12T04:03:22;10.57;;;9.57;;
31037;SDS011;17702;47.590;7.666;2023-09-12T04:05:49;12.68;;;9.27;;
31037;SDS011;17702;47.590;7.666;2023-09-12T04:08:16;10.15;;;8.90;;
31037;SDS011;17702;47.590;7.666;2023-09-12T04:10:42;10.52;;;8.98;;
31037;SDS011;17702;47.590;7.666;2023-09-12T04:13:08;10.60;;;9.50;;
31037;SDS011;17702;47.590;7.666;2023-09-12T04:15:34;11.68;;;9.55;;
31037;SDS011;17702;47.590;7.666;2023-09-12T04:17:59;14.20;;;9.70;;
31037;SDS011;17702;47.590;7.666;2023-09-12T04:20:25;10.35;;;9.32;;
31037;SDS011;17702;47.590;7.666;2023-09-12T04:22:50;11.57;;;10.27;;
31037;SDS011;17702;47.590;7.666;2023-09-12T04:25:16;12.10;;;10.43;;
31037;SDS011;17702;47.590;7.666;2023-09-12T04:27:44;16.40;;;10.05;;
31037;SDS011;17702;47.590;7.666;2023-09-12T04:30:10;10.95;;;9.85;;
31037;SDS011;17702;47.590;7.666;2023-09-12T04:32:36;10.57;;;9.50;;
31037;SDS011;17702;47.590;7.666;2023-09-12T04:35:02;12.25;;;9.73;;
31037;SDS011;17702;47.590;7.666;2023-09-12T04:37:28;11.02;;;9.93;;
31037;SDS011;17702;47.590;7.666;2023-09-12T04:39:54;11.32;;;10.15;;
31037;SDS011;17702;47.590;7.666;2023-09-12T04:42:19;10.77;;;9.85;;
31037;SDS011;17702;47.590;7.666;2023-09-12T04:44:45;10.80;;;9.82;;
31037;SDS011;17702;47.590;7.666;2023-09-12T04:47:11;11.82;;;10.70;;
31037;SDS011;17702;47.590;7.666;2023-09-12T04:49:37;10.52;;;9.63;;
31037;SDS011;17702;47.590;7.666;2023-09-12T04:52:04;12.52;;;10.63;;
31037;SDS011;17702;47.590;7.666;2023-09-12T04:54:30;17.10;;;11.05;;
31037;SDS011;17702;47.590;7.666;2023-09-12T04:56:55;14.55;;;10.15;;
31037;SDS011;17702;47.590;7.666;2023-09-12T04:59:21;12.38;;;10.48;;
31037;SDS011;17702;47.590;7.666;2023-09-12T05:01:46;12.50;;;11.25;;
31037;SDS011;17702;47.590;7.666;2023-09-12T05:04:12;12.15;;;10.82;;
31037;SDS011;17702;47.590;7.666;2023-09-12T05:06:37;14.68;;;11.43;;
31037;SDS011;17702;47.590;7.666;2023-09-12T05:09:04;13.15;;;11.73;;
31037;SDS011;17702;47.590;7.666;2023-09-12T05:11:31;13.15;;;11.82;;
31037;SDS011;17702;47.590;7.666;2023-09-12T05:13:56;11.93;;;10.75;;
31037;SDS011;17702;47.590;7.666;2023-09-12T05:16:22;12.50;;;11.00;;
31037;SDS011;17702;47.590;7.666;2023-09-12T05:18:47;14.93;;;11.25;;
31037;SDS011;17702;47.590;7.666;2023-09-12T05:21:14;13.68;;;12.05;;
31037;SDS011;17702;47.590;7.666;2023-09-12T05:23:40;13.55;;;12.10;;
31037;SDS011;17702;47.590;7.666;2023-09-12T05:26:05;15.65;;;10.70;;
31037;SDS011;17702;47.590;7.666;2023-09-12T05:28:31;13.85;;;11.65;;
31037;SDS011;17702;47.590;7.666;2023-09-12T05:30:57;12.40;;;11.20;;
31037;SDS011;17702;47.590;7.666;2023-09-12T05:33:22;14.45;;;11.35;;
31037;SDS011;17702;47.590;7.666;2023-09-12T05:35:48;11.93;;;10.73;;
31037;SDS011;17702;47.590;7.666;2023-09-12T05:38:13;13.07;;;11.40;;
31037;SDS011;17702;47.590;7.666;2023-09-12T05:40:39;17.45;;;11.70;;
31037;SDS011;17702;47.590;7.666;2023-09-12T05:43:05;19.45;;;11.15;;
31037;SDS011;17702;47.590;7.666;2023-09-12T05:45:30;13.88;;;11.05;;
31037;SDS011;17702;47.590;7.666;2023-09-12T05:47:57;12.85;;;11.10;;
31037;SDS011;17702;47.590;7.666;2023-09-12T05:50:23;13.23;;;11.00;;
31037;SDS011;17702;47.590;7.666;2023-09-12T05:52:49;14.50;;;11.02;;
31037;SDS011;17702;47.590;7.666;2023-09-12T05:55:14;11.95;;;10.75;;
31037;SDS011;17702;47.590;7.666;2023-09-12T05:57:41;14.57;;;11.88;;
31037;SDS011;17702;47.590;7.666;2023-09-12T06:00:07;14.38;;;11.88;;
31037;SDS011;17702;47.590;7.666;2023-09-12T06:02:36;15.85;;;12.75;;
31037;SDS011;17702;47.590;7.666;2023-09-12T06:05:05;16.60;;;12.27;;
31037;SDS011;17702;47.590;7.666;2023-09-12T06:07:31;15.13;;;11.20;;
31037;SDS011;17702;47.590;7.666;2023-09-12T06:09:57;13.10;;;11.63;;
31037;SDS011;17702;47.590;7.666;2023-09-12T06:12:23;16.80;;;12.25;;
31037;SDS011;17702;47.590;7.666;2023-09-12T06:14:48;12.30;;;11.10;;
31037;SDS011;17702;47.590;7.666;2023-09-12T06:17:14;14.25;;;12.82;;
31037;SDS011;17702;47.590;7.666;2023-09-12T06:19:40;16.42;;;12.43;;
31037;SDS011;17702;47.590;7.666;2023-09-12T06:22:10;15.65;;;12.07;;
31037;SDS011;17702;47.590;7.666;2023-09-12T06:24:35;13.48;;;12.13;;
31037;SDS011;17702;47.590;7.666;2023-09-12T06:27:01;14.93;;;12.10;;
31037;SDS011;17702;47.590;7.666;2023-09-12T06:29:26;18.02;;;12.80;;
31037;SDS011;17702;47.590;7.666;2023-09-12T06:31:52;18.73;;;13.18;;
31037;SDS011;17702;47.590;7.666;2023-09-12T06:34:19;15.48;;;13.65;;
31037;SDS011;17702;47.590;7.666;2023-09-12T06:36:45;26.85;;;20.85;;
31037;SDS011;17702;47.590;7.666;2023-09-12T06:39:11;32.63;;;26.73;;
31037;SDS011;17702;47.590;7.666;2023-09-12T06:41:37;27.83;;;15.95;;
31037;SDS011;17702;47.590;7.666;2023-09-12T06:44:02;21.90;;;14.93;;
31037;SDS011;17702;47.590;7.666;2023-09-12T06:46:30;23.02;;;14.15;;
31037;SDS011;17702;47.590;7.666;2023-09-12T06:48:55;21.17;;;13.57;;
31037;SDS011;17702;47.590;7.666;2023-09-12T06:51:24;51.92;;;38.63;;
31037;SDS011;17702;47.590;7.666;2023-09-12T06:53:52;23.52;;;21.02;;
31037;SDS011;17702;47.590;7.666;2023-09-12T06:56:18;17.40;;;13.77;;
31037;SDS011;17702;47.590;7.666;2023-09-12T06:58:43;18.13;;;14.15;;
31037;SDS011;17702;47.590;7.666;2023-09-12T07:01:09;16.08;;;13.90;;
31037;SDS011;17702;47.590;7.666;2023-09-12T07:03:35;19.77;;;14.57;;
31037;SDS011;17702;47.590;7.666;2023-09-12T07:06:01;17.75;;;14.25;;
31037;SDS011;17702;47.590;7.666;2023-09-12T07:08:29;19.00;;;14.07;;
31037;SDS011;17702;47.590;7.666;2023-09-12T07:10:55;15.95;;;14.35;;
31037;SDS011;17702;47.590;7.666;2023-09-12T07:13:22;16.85;;;12.85;;
31037;SDS011;17702;47.590;7.666;2023-09-12T07:15:49;17.48;;;14.15;;
31037;SDS011;17702;47.590;7.666;2023-09-12T07:18:15;19.45;;;14.73;;
31037;SDS011;17702;47.590;7.666;2023-09-12T07:20:41;16.15;;;14.45;;
31037;SDS011;17702;47.590;7.666;2023-09-12T07:23:06;14.88;;;13.43;;
31037;SDS011;17702;47.590;7.666;2023-09-12T07:25:39;16.38;;;14.68;;
31037;SDS011;17702;47.590;7.666;2023-09-12T07:28:08;23.38;;;14.40;;
31037;SDS011;17702;47.590;7.666;2023-09-12T07:30:33;17.80;;;15.13;;
31037;SDS011;17702;47.590;7.666;2023-09-12T07:32:59;16.45;;;14.73;;
31037;SDS011;17702;47.590;7.666;2023-09-12T07:35:25;16.42;;;14.82;;
31037;SDS011;17702;47.590;7.666;2023-09-12T07:37:51;17.73;;;13.85;;
31037;SDS011;17702;47.590;7.666;2023-09-12T07:40:16;16.85;;;13.75;;
31037;SDS011;17702;47.590;7.666;2023-09-12T07:42:42;18.83;;;14.20;;
31037;SDS011;17702;47.590;7.666;2023-09-12T07:45:08;16.10;;;14.43;;
31037;SDS011;17702;47.590;7.666;2023-09-12T07:47:34;17.17;;;13.80;;
31037;SDS011;17702;47.590;7.666;2023-09-12T07:49:59;13.73;;;12.43;;
31037;SDS011;17702;47.590;7.666;2023-09-12T07:52:28;15.30;;;12.95;;
31037;SDS011;17702;47.590;7.666;2023-09-12T07:54:59;23.08;;;13.65;;
31037;SDS011;17702;47.590;7.666;2023-09-12T07:59:50;21.77;;;12.98;;
31037;SDS011;17702;47.590;7.666;2023-09-12T08:02:16;16.58;;;13.32;;
31037;SDS011;17702;47.590;7.666;2023-09-12T08:04:41;15.90;;;13.65;;
31037;SDS011;17702;47.590;7.666;2023-09-12T08:07:07;18.50;;;13.20;;
31037;SDS011;17702;47.590;7.666;2023-09-12T08:12:14;14.07;;;12.68;;
31037;SDS011;17702;47.590;7.666;2023-09-12T08:14:40;20.98;;;12.25;;
31037;SDS011;17702;47.590;7.666;2023-09-12T08:17:06;16.65;;;12.38;;
31037;SDS011;17702;47.590;7.666;2023-09-12T08:19:31;15.13;;;12.07;;
31037;SDS011;17702;47.590;7.666;2023-09-12T08:21:57;12.10;;;11.00;;
31037;SDS011;17702;47.590;7.666;2023-09-12T08:24:22;13.15;;;11.82;;
31037;SDS011;17702;47.590;7.666;2023-09-12T08:26:48;16.08;;;11.50;;
31037;SDS011;17702;47.590;7.666;2023-09-12T08:29:14;17.23;;;12.50;;
31037;SDS011;17702;47.590;7.666;2023-09-12T08:31:40;14.02;;;10.40;;
31037;SDS011;17702;47.590;7.666;2023-09-12T08:34:05;13.15;;;11.50;;
31037;SDS011;17702;47.590;7.666;2023-09-12T08:36:31;12.65;;;11.35;;
31037;SDS011;17702;47.590;7.666;2023-09-12T08:38:56;16.25;;;11.90;;
31037;SDS011;17702;47.590;7.666;2023-09-12T08:41:22;15.82;;;12.45;;
31037;SDS011;17702;47.590;7.666;2023-09-12T08:43:48;15.20;;;11.48;;
31037;SDS011;17702;47.590;7.666;2023-09-12T08:46:14;15.45;;;11.68;;
31037;SDS011;17702;47.590;7.666;2023-09-12T08:48:41;12.25;;;11.15;;
31037;SDS011;17702;47.590;7.666;2023-09-12T08:51:08;12.40;;;10.90;;
31037;SDS011;17702;47.590;7.666;2023-09-12T08:53:35;13.55;;;11.20;;
31037;SDS011;17702;47.590;7.666;2023-09-12T08:56:01;11.88;;;10.45;;
31037;SDS011;17702;47.590;7.666;2023-09-12T08:58:28;14.23;;;11.95;;
31037;SDS011;17702;47.590;7.666;2023-09-12T09:00:56;12.77;;;11.48;;
31037;SDS011;17702;47.590;7.666;2023-09-12T09:03:22;14.18;;;10.48;;
31037;SDS011;17702;47.590;7.666;2023-09-12T09:05:49;12.18;;;10.88;;
31037;SDS011;17702;47.590;7.666;2023-09-12T09:08:16;21.60;;;10.80;;
31037;SDS011;17702;47.590;7.666;2023-09-12T09:11:01;14.82;;;9.85;;
31037;SDS011;17702;47.590;7.666;2023-09-12T09:13:31;11.68;;;8.98;;
31037;SDS011;17702;47.590;7.666;2023-09-12T09:16:13;28.60;;;9.43;;
31037;SDS011;17702;47.590;7.666;2023-09-12T09:18:50;18.70;;;8.98;;
31037;SDS011;17702;47.590;7.666;2023-09-12T09:21:20;13.30;;;8.80;;
31037;SDS011;17702;47.590;7.666;2023-09-12T09:23:54;30.95;;;9.90;;
31037;SDS011;17702;47.590;7.666;2023-09-12T09:26:20;16.83;;;8.07;;
31037;SDS011;17702;47.590;7.666;2023-09-12T09:29:00;8.68;;;7.00;;
31037;SDS011;17702;47.590;7.666;2023-09-12T09:31:28;7.88;;;7.18;;
31037;SDS011;17702;47.590;7.666;2023-09-12T09:33:54;19.20;;;7.47;;
31037;SDS011;17702;47.590;7.666;2023-09-12T09:36:20;7.95;;;7.15;;
31037;SDS011;17702;47.590;7.666;2023-09-12T09:38:46;7.47;;;6.70;;
31037;SDS011;17702;47.590;7.666;2023-09-12T09:41:11;10.55;;;7.05;;
31037;SDS011;17702;47.590;7.666;2023-09-12T09:43:37;7.15;;;6.28;;
31037;SDS011;17702;47.590;7.666;2023-09-12T09:46:02;5.95;;;5.63;;
31037;SDS011;17702;47.590;7.666;2023-09-12T09:48:28;7.07;;;6.47;;
31037;SDS011;17702;47.590;7.666;2023-09-12T09:51:00;6.53;;;6.03;;
31037;SDS011;17702;47.590;7.666;2023-09-12T09:53:27;6.43;;;5.93;;
31037;SDS011;17702;47.590;7.666;2023-09-12T09:58:32;7.35;;;6.60;;
31037;SDS011;17702;47.590;7.666;2023-09-12T10:00:58;6.13;;;5.82;;
31037;SDS011;17702;47.590;7.666;2023-09-12T10:03:25;7.22;;;6.53;;
31037;SDS011;17702;47.590;7.666;2023-09-12T10:05:53;6.95;;;6.35;;
31037;SDS011;17702;47.590;7.666;2023-09-12T10:08:21;7.70;;;7.07;;
31037;SDS011;17702;47.590;7.666;2023-09-12T10:10:50;7.43;;;6.65;;
31037;SDS011;17702;47.590;7.666;2023-09-12T10:13:17;6.05;;;5.63;;
31037;SDS011;17702;47.590;7.666;2023-09-12T10:15:45;6.85;;;6.30;;
31037;SDS011;17702;47.590;7.666;2023-09-12T10:18:14;6.63;;;6.03;;
31037;SDS011;17702;47.590;7.666;2023-09-12T10:20:49;7.50;;;6.75;;
31037;SDS011;17702;47.590;7.666;2023-09-12T10:26:21;7.55;;;6.82;;
31037;SDS011;17702;47.590;7.666;2023-09-12T10:28:48;7.43;;;6.82;;
31037;SDS011;17702;47.590;7.666;2023-09-12T10:31:15;6.93;;;6.43;;
31037;SDS011;17702;47.590;7.666;2023-09-12T10:33:42;7.82;;;6.45;;
31037;SDS011;17702;47.590;7.666;2023-09-12T10:36:09;6.82;;;6.20;;
31037;SDS011;17702;47.590;7.666;2023-09-12T10:38:40;6.88;;;6.30;;
31037;SDS011;17702;47.590;7.666;2023-09-12T10:41:11;12.60;;;6.03;;
31037;SDS011;17702;47.590;7.666;2023-09-12T10:43:39;6.80;;;6.30;;
31037;SDS011;17702;47.590;7.666;2023-09-12T10:46:06;6.82;;;6.40;;
31037;SDS011;17702;47.590;7.666;2023-09-12T10:48:32;9.57;;;6.45;;
31037;SDS011;17702;47.590;7.666;2023-09-12T10:50:59;7.32;;;6.43;;
31037;SDS011;17702;47.590;7.666;2023-09-12T10:53:26;7.57;;;6.88;;
31037;SDS011;17702;47.590;7.666;2023-09-12T10:56:14;9.07;;;6.05;;
31037;SDS011;17702;47.590;7.666;2023-09-12T11:01:38;7.00;;;6.40;;
31037;SDS011;17702;47.590;7.666;2023-09-12T11:06:49;7.32;;;6.70;;
31037;SDS011;17702;47.590;7.666;2023-09-12T11:09:21;7.53;;;6.57;;
31037;SDS011;17702;47.590;7.666;2023-09-12T11:11:58;8.18;;;6.40;;
31037;SDS011;17702;47.590;7.666;2023-09-12T11:14:27;10.32;;;6.60;;
31037;SDS011;17702;47.590;7.666;2023-09-12T11:19:50;8.38;;;6.55;;
31037;SDS011;17702;47.590;7.666;2023-09-12T11:22:20;8.40;;;6.22;;
31037;SDS011;17702;47.590;7.666;2023-09-12T11:24:51;7.28;;;6.30;;
31037;SDS011;17702;47.590;7.666;2023-09-12T11:27:17;6.80;;;6.20;;
31037;SDS011;17702;47.590;7.666;2023-09-12T11:29:42;7.18;;;6.47;;
31037;SDS011;17702;47.590;7.666;2023-09-12T11:32:08;6.75;;;6.25;;
31037;SDS011;17702;47.590;7.666;2023-09-12T11:37:03;8.40;;;5.97;;
31037;SDS011;17702;47.590;7.666;2023-09-12T11:39:30;6.78;;;6.20;;
31037;SDS011;17702;47.590;7.666;2023-09-12T11:42:01;6.97;;;6.35;;
31037;SDS011;17702;47.590;7.666;2023-09-12T11:44:28;6.97;;;6.32;;
31037;SDS011;17702;47.590;7.666;2023-09-12T11:46:56;7.65;;;5.95;;
31037;SDS011;17702;47.590;7.666;2023-09-12T11:49:28;6.97;;;6.32;;
31037;SDS011;17702;47.590;7.666;2023-09-12T11:52:02;8.60;;;6.07;;
31037;SDS011;17702;47.590;7.666;2023-09-12T11:54:28;6.60;;;6.03;;
31037;SDS011;17702;47.590;7.666;2023-09-12T11:56:56;12.45;;;6.28;;
31037;SDS011;17702;47.590;7.666;2023-09-12T11:59:24;9.68;;;5.85;;
31037;SDS011;17702;47.590;7.666;2023-09-12T12:01:56;12.60;;;6.97;;
31037;SDS011;17702;47.590;7.666;2023-09-12T12:04:23;6.43;;;5.82;;
31037;SDS011;17702;47.590;7.666;2023-09-12T12:06:50;8.05;;;6.10;;
31037;SDS011;17702;47.590;7.666;2023-09-12T12:09:17;33.20;;;6.38;;
31037;SDS011;17702;47.590;7.666;2023-09-12T12:11:44;11.02;;;6.20;;
31037;SDS011;17702;47.590;7.666;2023-09-12T12:14:12;7.95;;;5.85;;
31037;SDS011;17702;47.590;7.666;2023-09-12T12:16:42;10.27;;;6.55;;
31037;SDS011;17702;47.590;7.666;2023-09-12T12:19:11;17.52;;;7.72;;
31037;SDS011;17702;47.590;7.666;2023-09-12T12:21:41;10.30;;;5.90;;
31037;SDS011;17702;47.590;7.666;2023-09-12T12:24:10;10.90;;;6.37;;
31037;SDS011;17702;47.590;7.666;2023-09-12T12:26:40;6.68;;;6.07;;
31037;SDS011;17702;47.590;7.666;2023-09-12T12:29:06;8.65;;;5.80;;
31037;SDS011;17702;47.590;7.666;2023-09-12T12:31:33;15.63;;;6.72;;
31037;SDS011;17702;47.590;7.666;2023-09-12T12:33:59;9.05;;;7.10;;
31037;SDS011;17702;47.590;7.666;2023-09-12T12:36:25;6.78;;;6.18;;
31037;SDS011;17702;47.590;7.666;2023-09-12T12:38:52;7.50;;;6.80;;
31037;SDS011;17702;47.590;7.666;2023-09-12T12:41:28;9.00;;;6.88;;
31037;SDS011;17702;47.590;7.666;2023-09-12T12:43:57;6.80;;;5.80;;
31037;SDS011;17702;47.590;7.666;2023-09-12T12:46:26;7.88;;;6.50;;
31037;SDS011;17702;47.590;7.666;2023-09-12T12:48:53;8.30;;;6.13;;
31037;SDS011;17702;47.590;7.666;2023-09-12T12:51:21;7.40;;;5.93;;
31037;SDS011;17702;47.590;7.666;2023-09-12T12:56:21;6.53;;;6.03;;
31037;SDS011;17702;47.590;7.666;2023-09-12T12:58:56;5.97;;;5.57;;
31037;SDS011;17702;47.590;7.666;2023-09-12T13:01:23;6.78;;;6.28;;
31037;SDS011;17702;47.590;7.666;2023-09-12T13:03:49;7.45;;;6.20;;
31037;SDS011;17702;47.590;7.666;2023-09-12T13:06:16;7.35;;;6.65;;
31037;SDS011;17702;47.590;7.666;2023-09-12T13:08:45;9.25;;;6.53;;
31037;SDS011;17702;47.590;7.666;2023-09-12T13:11:12;11.52;;;7.85;;
31037;SDS011;17702;47.590;7.666;2023-09-12T13:13:39;6.28;;;5.70;;
31037;SDS011;17702;47.590;7.666;2023-09-12T13:16:06;9.52;;;6.57;;
31037;SDS011;17702;47.590;7.666;2023-09-12T13:18:36;10.98;;;8.27;;
31037;SDS011;17702;47.590;7.666;2023-09-12T13:21:03;7.13;;;5.82;;
31037;SDS011;17702;47.590;7.666;2023-09-12T13:23:29;6.60;;;5.78;;
31037;SDS011;17702;47.590;7.666;2023-09-12T13:25:55;6.35;;;5.85;;
31037;SDS011;17702;47.590;7.666;2023-09-12T13:28:22;6.40;;;5.85;;
31037;SDS011;17702;47.590;7.666;2023-09-12T13:30:54;5.60;;;5.20;;
31037;SDS011;17702;47.590;7.666;2023-09-12T13:33:20;7.55;;;5.90;;
31037;SDS011;17702;47.590;7.666;2023-09-12T13:35:49;6.55;;;5.93;;
31037;SDS011;17702;47.590;7.666;2023-09-12T13:38:15;7.82;;;6.00;;
31037;SDS011;17702;47.590;7.666;2023-09-12T13:40:43;6.10;;;5.60;;
31037;SDS011;17702;47.590;7.666;2023-09-12T13:43:09;7.93;;;6.25;;
31037;SDS011;17702;47.590;7.666;2023-09-12T13:45:36;5.75;;;5.35;;
31037;SDS011;17702;47.590;7.666;2023-09-12T13:48:02;7.88;;;5.43;;
31037;SDS011;17702;47.590;7.666;2023-09-12T13:50:28;6.32;;;5.70;;
31037;SDS011;17702;47.590;7.666;2023-09-12T13:52:54;5.97;;;5.57;;
31037;SDS011;17702;47.590;7.666;2023-09-12T13:55:21;8.05;;;5.63;;
31037;SDS011;17702;47.590;7.666;2023-09-12T13:57:47;6.07;;;5.57;;
31037;SDS011;17702;47.590;7.666;2023-09-12T14:00:12;6.28;;;5.85;;
31037;SDS011;17702;47.590;7.666;2023-09-12T14:02:38;7.80;;;5.75;;
31037;SDS011;17702;47.590;7.666;2023-09-12T14:05:04;8.95;;;5.63;;
31037;SDS011;17702;47.590;7.666;2023-09-12T14:07:30;6.25;;;5.40;;
31037;SDS011;17702;47.590;7.666;2023-09-12T14:09:55;8.68;;;5.90;;
31037;SDS011;17702;47.590;7.666;2023-09-12T14:12:22;6.47;;;5.80;;
31037;SDS011;17702;47.590;7.666;2023-09-12T14:14:48;6.93;;;5.38;;
31037;SDS011;17702;47.590;7.666;2023-09-12T14:17:14;6.35;;;5.53;;
31037;SDS011;17702;47.590;7.666;2023-09-12T14:19:39;6.25;;;5.82;;
31037;SDS011;17702;47.590;7.666;2023-09-12T14:22:05;6.80;;;6.30;;
31037;SDS011;17702;47.590;7.666;2023-09-12T14:24:31;7.13;;;6.43;;
31037;SDS011;17702;47.590;7.666;2023-09-12T14:26:56;7.22;;;6.22;;
31037;SDS011;17702;47.590;7.666;2023-09-12T14:29:22;6.68;;;6.18;;
31037;SDS011;17702;47.590;7.666;2023-09-12T14:31:49;6.40;;;5.88;;
31037;SDS011;17702;47.590;7.666;2023-09-12T14:34:18;6.75;;;6.20;;
31037;SDS011;17702;47.590;7.666;2023-09-12T14:36:44;7.43;;;6.10;;
31037;SDS011;17702;47.590;7.666;2023-09-12T14:39:11;7.13;;;6.47;;
31037;SDS011;17702;47.590;7.666;2023-09-12T14:41:37;8.63;;;5.82;;
31037;SDS011;17702;47.590;7.666;2023-09-12T14:44:02;7.03;;;6.20;;
31037;SDS011;17702;47.590;7.666;2023-09-12T14:46:30;6.88;;;6.25;;
31037;SDS011;17702;47.590;7.666;2023-09-12T14:48:55;6.82;;;6.22;;
31037;SDS011;17702;47.590;7.666;2023-09-12T14:51:21;7.10;;;6.43;;
31037;SDS011;17702;47.590;7.666;2023-09-12T14:53:46;7.13;;;6.03;;
31037;SDS011;17702;47.590;7.666;2023-09-12T14:56:12;7.25;;;6.43;;
31037;SDS011;17702;47.590;7.666;2023-09-12T14:58:38;6.32;;;5.93;;
31037;SDS011;17702;47.590;7.666;2023-09-12T15:01:04;6.63;;;6.13;;
31037;SDS011;17702;47.590;7.666;2023-09-12T15:03:30;9.15;;;6.70;;